createdAt,value
2023-03-22T00:02:13.952Z,12.43
2023-03-22T00:04:42.767Z,12.55
2023-03-22T00:07:10.239Z,12.62
2023-03-22T00:09:37.692Z,12.47
2023-03-22T00:12:06.763Z,12.38
2023-03-22T00:14:34.030Z,12.37
2023-03-22T00:17:01.314Z,12.33
2023-03-22T00:19:29.112Z,12.58
2023-03-22T00:21:56.686Z,12.58
2023-03-22T00:24:23.958Z,12.41
2023-03-22T00:26:51.210Z,12.42
2023-03-22T00:29:22.443Z,12.51
2023-03-22T00:31:51.965Z,12.60
2023-03-22T00:34:19.338Z,12.62
2023-03-22T00:36:46.595Z,12.65
2023-03-22T00:39:13.877Z,12.54
2023-03-22T00:41:41.319Z,12.55
2023-03-22T00:44:08.596Z,12.51
2023-03-22T00:46:37.506Z,12.58
2023-03-22T00:49:05.257Z,12.58
2023-03-22T00:51:32.502Z,12.54
2023-03-22T00:53:59.767Z,12.48
2023-03-22T00:56:28.686Z,12.41
2023-03-22T00:58:56.234Z,12.41
2023-03-22T01:01:23.560Z,12.38
2023-03-22T01:03:52.402Z,12.41
2023-03-22T01:06:19.732Z,12.32
2023-03-22T01:08:47.002Z,12.26
2023-03-22T01:11:14.408Z,12.16
2023-03-22T01:13:42.154Z,12.17
2023-03-22T01:16:10.349Z,11.73
2023-03-22T01:18:37.705Z,11.50
2023-03-22T01:21:06.806Z,11.67
2023-03-22T01:23:34.064Z,11.75
2023-03-22T01:26:01.762Z,11.48
2023-03-22T01:28:29.132Z,11.57
2023-03-22T01:30:56.757Z,11.46
2023-03-22T01:33:24.091Z,11.43
2023-03-22T01:35:52.566Z,11.55
2023-03-22T01:38:21.590Z,11.57
2023-03-22T01:40:49.008Z,11.35
2023-03-22T01:43:17.299Z,11.26
2023-03-22T01:45:45.861Z,11.23
2023-03-22T01:48:16.289Z,11.24
2023-03-22T01:50:45.365Z,11.10
2023-03-22T01:53:14.367Z,11.12
2023-03-22T01:55:43.185Z,11.00
2023-03-22T01:58:10.692Z,10.93
2023-03-22T02:00:38.387Z,10.82
2023-03-22T02:03:07.082Z,10.70
2023-03-22T02:05:35.465Z,10.48
2023-03-22T02:08:03.068Z,10.57
2023-03-22T02:10:30.370Z,10.71
2023-03-22T02:13:03.878Z,10.42
2023-03-22T02:15:35.024Z,10.33
2023-03-22T02:18:11.358Z,10.40
2023-03-22T02:21:06.338Z,10.18
2023-03-22T02:23:47.664Z,10.02
2023-03-22T02:26:29.874Z,9.98
2023-03-22T02:29:04.072Z,10.15
2023-03-22T02:31:50.877Z,10.09
2023-03-22T02:34:33.443Z,10.02
2023-03-22T02:37:18.445Z,10.19
2023-03-22T02:39:49.836Z,10.03
2023-03-22T02:42:24.455Z,10.11
2023-03-22T02:44:59.005Z,10.02
2023-03-22T02:47:28.218Z,9.69
2023-03-22T02:49:57.613Z,9.75
2023-03-22T02:52:29.227Z,9.76
2023-03-22T02:55:04.348Z,9.56
2023-03-22T02:57:34.633Z,9.63
2023-03-22T03:00:07.986Z,9.57
2023-03-22T03:02:35.942Z,9.55
2023-03-22T03:05:03.739Z,9.48
2023-03-22T03:07:31.279Z,9.50
2023-03-22T03:10:00.453Z,9.40
2023-03-22T03:12:28.569Z,9.49
2023-03-22T03:14:55.943Z,9.48
2023-03-22T03:17:28.606Z,9.37
2023-03-22T03:20:00.389Z,9.32
2023-03-22T03:22:33.031Z,9.02
2023-03-22T03:25:06.698Z,9.14
2023-03-22T03:27:36.451Z,9.24
2023-03-22T03:30:06.669Z,9.24
2023-03-22T03:32:38.347Z,9.02
2023-03-22T03:35:08.541Z,8.84
2023-03-22T03:37:37.845Z,8.83
2023-03-22T03:40:10.734Z,8.98
2023-03-22T03:42:38.995Z,8.77
2023-03-22T03:45:07.199Z,8.87
2023-03-22T03:47:35.831Z,8.90
2023-03-22T03:50:03.339Z,8.94
2023-03-22T03:52:30.692Z,8.91
2023-03-22T03:54:58.067Z,8.92
2023-03-22T03:57:27.101Z,8.84
2023-03-22T03:59:54.444Z,8.89
2023-03-22T04:02:21.747Z,8.84
2023-03-22T04:04:49.057Z,8.90
2023-03-22T04:07:16.357Z,8.97
2023-03-22T04:09:43.725Z,8.93
2023-03-22T04:12:11.115Z,8.96
2023-03-22T04:14:39.717Z,9.09
2023-03-22T04:17:07.000Z,9.04
2023-03-22T04:19:34.340Z,9.03
2023-03-22T04:22:01.622Z,8.96
2023-03-22T04:24:28.934Z,8.87
2023-03-22T04:26:56.752Z,8.78
2023-03-22T04:29:24.476Z,8.74
2023-03-22T04:31:54.148Z,8.67
2023-03-22T04:34:21.413Z,8.59
2023-03-22T04:36:49.726Z,8.66
2023-03-22T04:39:17.003Z,8.69
2023-03-22T04:41:44.265Z,8.74
2023-03-22T04:44:11.614Z,8.61
2023-03-22T04:46:39.091Z,8.57
2023-03-22T04:49:07.807Z,8.64
2023-03-22T04:51:35.223Z,8.65
2023-03-22T04:54:02.559Z,8.28
2023-03-22T04:56:29.826Z,8.40
2023-03-22T04:58:57.089Z,8.53
2023-03-22T05:01:24.387Z,8.56
2023-03-22T05:03:51.693Z,8.48
2023-03-22T05:06:20.286Z,8.34
2023-03-22T05:08:47.549Z,8.49
2023-03-22T05:11:16.353Z,8.54
2023-03-22T05:13:44.009Z,8.28
2023-03-22T05:16:11.403Z,8.48
2023-03-22T05:18:42.435Z,8.56
2023-03-22T05:21:13.644Z,8.45
2023-03-22T05:23:42.821Z,8.41
2023-03-22T05:26:10.396Z,8.66
2023-03-22T05:28:38.540Z,8.57
2023-03-22T05:31:06.430Z,8.49
2023-03-22T05:33:34.717Z,8.72
2023-03-22T05:36:02.157Z,8.64
2023-03-22T05:38:29.642Z,8.83
2023-03-22T05:40:58.224Z,8.85
2023-03-22T05:43:25.555Z,8.99
2023-03-22T05:45:53.010Z,9.23
2023-03-22T05:48:20.341Z,9.36
2023-03-22T05:50:47.690Z,9.69
2023-03-22T05:53:14.982Z,9.92
2023-03-22T05:55:42.621Z,10.04
2023-03-22T05:58:11.205Z,10.20
2023-03-22T06:00:38.871Z,10.30
2023-03-22T06:03:06.372Z,10.44
2023-03-22T06:05:36.434Z,10.51
2023-03-22T06:08:04.573Z,10.45
2023-03-22T06:10:32.155Z,10.35
2023-03-22T06:12:59.540Z,10.40
2023-03-22T06:15:28.168Z,10.27
2023-03-22T06:17:55.458Z,10.42
2023-03-22T06:20:22.715Z,10.58
2023-03-22T06:22:50.030Z,10.63
2023-03-22T06:25:17.527Z,10.75
2023-03-22T06:27:44.831Z,10.84
2023-03-22T06:30:12.374Z,10.98
2023-03-22T06:32:41.027Z,11.08
2023-03-22T06:35:08.796Z,11.12
2023-03-22T06:37:36.079Z,11.13
2023-03-22T06:40:03.667Z,11.26
2023-03-22T06:42:31.624Z,11.25
2023-03-22T06:44:58.890Z,11.40
2023-03-22T06:47:26.355Z,11.60
2023-03-22T06:49:55.213Z,11.46
2023-03-22T06:52:22.573Z,11.60
2023-03-22T06:54:49.839Z,11.67
2023-03-22T06:57:17.112Z,11.84
2023-03-22T06:59:44.407Z,11.79
2023-03-22T07:02:12.772Z,11.90
2023-03-22T07:04:40.263Z,12.00
2023-03-22T07:07:08.842Z,11.87
2023-03-22T07:09:36.137Z,11.90
2023-03-22T07:12:04.936Z,12.03
2023-03-22T07:14:32.461Z,12.17
2023-03-22T07:16:59.780Z,12.23
2023-03-22T07:19:27.702Z,12.38
2023-03-22T07:21:55.006Z,12.35
2023-03-22T07:24:23.650Z,12.42
2023-03-22T07:26:51.067Z,12.53
2023-03-22T07:29:18.376Z,12.46
2023-03-22T07:31:45.799Z,12.52
2023-03-22T07:34:13.261Z,12.64
2023-03-22T07:36:40.571Z,12.65
2023-03-22T07:39:07.906Z,12.90
2023-03-22T07:41:36.526Z,12.93
2023-03-22T07:44:17.046Z,13.11
2023-03-22T07:46:45.207Z,13.18
2023-03-22T07:49:12.513Z,13.32
2023-03-22T07:51:39.822Z,13.57
2023-03-22T07:54:08.003Z,13.88
2023-03-22T07:56:36.687Z,14.21
2023-03-22T07:59:04.098Z,14.32
2023-03-22T08:01:31.417Z,14.56
2023-03-22T08:03:58.777Z,14.81
2023-03-22T08:06:26.130Z,14.95
2023-03-22T08:08:53.377Z,14.94
2023-03-22T08:11:20.650Z,15.25
2023-03-22T08:13:49.304Z,15.39
2023-03-22T08:16:16.998Z,15.55
2023-03-22T08:18:45.427Z,15.60
2023-03-22T08:21:12.831Z,15.18
2023-03-22T08:23:42.096Z,15.27
2023-03-22T08:26:10.231Z,15.30
2023-03-22T08:28:37.801Z,15.16
2023-03-22T08:31:13.936Z,15.39
2023-03-22T08:33:42.470Z,15.76
2023-03-22T08:36:11.342Z,15.97
2023-03-22T08:38:38.669Z,16.04
2023-03-22T08:41:05.999Z,16.36
2023-03-22T08:43:33.272Z,16.38
2023-03-22T08:46:00.729Z,16.36
2023-03-22T08:48:30.642Z,16.09
2023-03-22T08:50:58.054Z,16.34
2023-03-22T08:53:25.344Z,16.50
2023-03-22T08:55:52.622Z,16.53
2023-03-22T08:58:20.574Z,16.63
2023-03-22T09:00:49.708Z,16.79
2023-03-22T09:03:17.231Z,16.60
2023-03-22T09:05:45.854Z,16.76
2023-03-22T09:08:19.216Z,16.43
2023-03-22T09:10:51.211Z,16.38
2023-03-22T09:13:18.564Z,16.44
2023-03-22T09:15:46.127Z,16.50
2023-03-22T09:18:13.885Z,16.58
2023-03-22T09:20:41.713Z,16.91
2023-03-22T09:23:10.614Z,16.94
2023-03-22T09:25:38.276Z,17.33
2023-03-22T09:28:05.859Z,17.55
2023-03-22T09:30:33.239Z,17.86
2023-03-22T09:33:00.499Z,18.11
2023-03-22T09:35:27.778Z,18.22
2023-03-22T09:37:56.060Z,18.37
2023-03-22T09:40:26.723Z,18.40
2023-03-22T09:42:58.254Z,18.61
2023-03-22T09:45:32.162Z,18.42
2023-03-22T09:48:00.015Z,18.53
2023-03-22T09:50:28.686Z,18.72
2023-03-22T09:52:56.119Z,18.53
2023-03-22T09:55:31.460Z,18.91
2023-03-22T09:58:02.934Z,18.89
2023-03-22T10:00:36.049Z,18.31
2023-03-22T10:03:10.593Z,18.36
2023-03-22T10:05:41.377Z,18.85
2023-03-22T10:08:26.807Z,18.42
2023-03-22T10:10:55.521Z,18.22
2023-03-22T10:13:24.741Z,18.41
2023-03-22T10:15:53.363Z,18.68
2023-03-22T10:18:21.937Z,18.81
2023-03-22T10:20:51.203Z,18.48
2023-03-22T10:23:21.376Z,18.21
2023-03-22T10:25:48.767Z,18.03
2023-03-22T10:28:20.370Z,17.89
2023-03-22T10:30:53.210Z,17.56
2023-03-22T10:33:23.820Z,17.51
2023-03-22T10:35:53.025Z,17.27
2023-03-22T10:38:22.313Z,17.37
2023-03-22T10:40:50.449Z,17.37
2023-03-22T10:43:22.251Z,17.51
2023-03-22T10:45:49.644Z,17.32
2023-03-22T10:48:21.666Z,17.26
2023-03-22T10:50:49.153Z,17.44
2023-03-22T10:53:22.062Z,17.68
2023-03-22T10:55:49.329Z,17.87
2023-03-22T10:58:17.687Z,17.86
2023-03-22T11:00:47.288Z,17.60
2023-03-22T11:03:26.409Z,17.92
2023-03-22T11:05:58.628Z,17.88
2023-03-22T11:08:25.878Z,17.91
2023-03-22T11:10:55.005Z,18.02
2023-03-22T11:13:24.441Z,18.22
2023-03-22T11:15:55.300Z,18.51
2023-03-22T11:18:22.636Z,18.30
2023-03-22T11:20:55.428Z,18.31
2023-03-22T11:23:23.469Z,18.26
2023-03-22T11:25:51.625Z,18.16
2023-03-22T11:28:20.948Z,18.62
2023-03-22T11:31:00.487Z,18.87
2023-03-22T11:33:27.747Z,19.19
2023-03-22T11:35:55.739Z,19.37
2023-03-22T11:38:24.968Z,19.58
2023-03-22T11:40:55.687Z,19.22
2023-03-22T11:43:24.424Z,19.24
2023-03-22T11:45:54.413Z,19.13
2023-03-22T11:48:24.399Z,19.08
2023-03-22T11:50:54.196Z,18.77
2023-03-22T11:53:23.473Z,18.90
2023-03-22T11:55:52.821Z,18.90
2023-03-22T11:58:26.308Z,19.20
2023-03-22T12:00:54.264Z,19.14
2023-03-22T12:03:26.057Z,19.36
2023-03-22T12:05:53.858Z,19.50
2023-03-22T12:08:24.919Z,19.66
2023-03-22T12:10:54.640Z,19.67
2023-03-22T12:13:23.831Z,19.41
2023-03-22T12:15:53.824Z,19.55
2023-03-22T12:18:27.462Z,19.34
2023-03-22T12:20:57.110Z,19.55
2023-03-22T12:23:26.146Z,19.76
2023-03-22T12:25:57.234Z,20.05
2023-03-22T12:28:28.976Z,20.24
2023-03-22T12:30:58.472Z,20.37
2023-03-22T12:33:27.485Z,20.19
2023-03-22T12:35:58.783Z,19.53
2023-03-22T12:38:29.587Z,19.36
2023-03-22T12:40:59.046Z,19.51
2023-03-22T12:43:33.739Z,19.82
2023-03-22T12:46:02.845Z,19.89
2023-03-22T12:48:33.861Z,20.04
2023-03-22T12:51:05.187Z,19.94
2023-03-22T12:53:34.706Z,19.57
2023-03-22T12:56:02.649Z,19.68
2023-03-22T12:58:29.993Z,19.92
2023-03-22T13:00:59.358Z,19.79
2023-03-22T13:03:28.806Z,19.94
2023-03-22T13:06:01.331Z,19.83
2023-03-22T13:08:49.960Z,19.81
2023-03-22T13:11:23.194Z,20.11
2023-03-22T13:13:50.561Z,20.10
2023-03-22T13:16:22.539Z,20.00
2023-03-22T13:19:08.250Z,20.16
2023-03-22T13:21:39.810Z,20.27
2023-03-22T13:24:24.140Z,20.29
2023-03-22T13:26:53.160Z,20.40
2023-03-22T13:29:21.773Z,20.30
2023-03-22T13:31:57.269Z,20.33
2023-03-22T13:34:31.853Z,20.36
2023-03-22T13:37:01.485Z,20.29
2023-03-22T13:39:39.245Z,20.18
2023-03-22T13:42:17.848Z,19.71
2023-03-22T13:44:47.043Z,19.72
2023-03-22T13:47:34.600Z,19.77
2023-03-22T13:50:06.825Z,19.70
2023-03-22T13:52:35.954Z,19.76
2023-03-22T13:55:05.434Z,19.76
2023-03-22T13:57:40.899Z,19.72
2023-03-22T14:00:20.461Z,19.65
2023-03-22T14:02:49.712Z,19.53
2023-03-22T14:05:18.875Z,19.75
2023-03-22T14:07:48.759Z,19.49
2023-03-22T14:10:23.438Z,19.57
2023-03-22T14:12:53.059Z,19.64
2023-03-22T14:15:22.714Z,19.62
2023-03-22T14:17:52.196Z,19.66
2023-03-22T14:20:21.911Z,19.48
